sensor_id;sensor_type;location;lat;lon;timestamp;pressure;altitude;pressure_sealevel;temperature;humidity
80102;BME280;69407;44.966;19.622;2023-04-24T00:00:46;100061.03;;;12.97;62.92
80102;BME280;69407;44.966;19.622;2023-04-24T00:03:12;100070.28;;;13.04;62.06
80102;BME280;69407;44.966;19.622;2023-04-24T00:05:38;100064.16;;;13.16;61.74
80102;BME280;69407;44.966;19.622;2023-04-24T00:08:05;100067.41;;;13.07;61.66
80102;BME280;69407;44.966;19.622;2023-04-24T00:10:31;100064.47;;;12.85;63.09
80102;BME280;69407;44.966;19.622;2023-04-24T00:12:57;100068.81;;;12.72;63.85
80102;BME280;69407;44.966;19.622;2023-04-24T00:15:22;100065.53;;;12.68;63.83
80102;BME280;69407;44.966;19.622;2023-04-24T00:17:48;100056.34;;;12.74;63.73
80102;BME280;69407;44.966;19.622;2023-04-24T00:20:13;100059.91;;;12.87;63.60
80102;BME280;69407;44.966;19.622;2023-04-24T00:22:40;100050.38;;;12.84;63.04
80102;BME280;69407;44.966;19.622;2023-04-24T00:25:06;100051.63;;;12.65;64.24
80102;BME280;69407;44.966;19.622;2023-04-24T00:27:32;100051.81;;;12.61;64.43
80102;BME280;69407;44.966;19.622;2023-04-24T00:29:57;100052.00;;;12.73;63.98
80102;BME280;69407;44.966;19.622;2023-04-24T00:32:23;100049.25;;;12.74;64.05
80102;BME280;69407;44.966;19.622;2023-04-24T00:34:48;100055.44;;;12.60;64.29
80102;BME280;69407;44.966;19.622;2023-04-24T00:37:13;100053.03;;;12.56;64.85
80102;BME280;69407;44.966;19.622;2023-04-24T00:39:39;100048.81;;;12.39;65.18
80102;BME280;69407;44.966;19.622;2023-04-24T00:42:05;100057.22;;;12.31;66.14
80102;BME280;69407;44.966;19.622;2023-04-24T00:44:32;100059.78;;;12.61;65.06
80102;BME280;69407;44.966;19.622;2023-04-24T00:46:58;100061.00;;;12.42;66.10
80102;BME280;69407;44.966;19.622;2023-04-24T00:49:25;100059.41;;;12.39;65.92
80102;BME280;69407;44.966;19.622;2023-04-24T00:51:50;100060.38;;;12.38;66.14
80102;BME280;69407;44.966;19.622;2023-04-24T00:54:17;100056.66;;;12.41;65.61
80102;BME280;69407;44.966;19.622;2023-04-24T00:56:43;100052.69;;;12.48;65.49
80102;BME280;69407;44.966;19.622;2023-04-24T00:59:09;100055.06;;;12.38;65.55
80102;BME280;69407;44.966;19.622;2023-04-24T01:01:35;100051.38;;;12.41;66.20
80102;BME280;69407;44.966;19.622;2023-04-24T01:04:01;100044.38;;;12.40;65.68
80102;BME280;69407;44.966;19.622;2023-04-24T01:06:28;100039.91;;;12.40;66.02
80102;BME280;69407;44.966;19.622;2023-04-24T01:08:57;100037.44;;;12.51;65.19
80102;BME280;69407;44.966;19.622;2023-04-24T01:11:24;100044.22;;;12.70;64.39
80102;BME280;69407;44.966;19.622;2023-04-24T01:13:50;100044.25;;;12.55;65.25
80102;BME280;69407;44.966;19.622;2023-04-24T01:16:16;100043.03;;;12.32;66.01
80102;BME280;69407;44.966;19.622;2023-04-24T01:18:43;100050.31;;;12.43;65.51
80102;BME280;69407;44.966;19.622;2023-04-24T01:21:13;100052.47;;;12.22;66.58
80102;BME280;69407;44.966;19.622;2023-04-24T01:23:39;100043.22;;;12.29;66.59
80102;BME280;69407;44.966;19.622;2023-04-24T01:26:05;100049.66;;;12.40;66.54
80102;BME280;69407;44.966;19.622;2023-04-24T01:28:31;100045.59;;;12.34;66.75
80102;BME280;69407;44.966;19.622;2023-04-24T01:30:56;100041.81;;;12.24;67.01
80102;BME280;69407;44.966;19.622;2023-04-24T01:33:22;100039.81;;;11.99;67.95
80102;BME280;69407;44.966;19.622;2023-04-24T01:35:48;100035.28;;;12.15;67.73
80102;BME280;69407;44.966;19.622;2023-04-24T01:38:14;100044.06;;;12.30;67.47
80102;BME280;69407;44.966;19.622;2023-04-24T01:40:40;100038.13;;;12.12;67.94
80102;BME280;69407;44.966;19.622;2023-04-24T01:43:06;100034.63;;;12.12;68.21
80102;BME280;69407;44.966;19.622;2023-04-24T01:45:31;100029.41;;;12.10;68.47
80102;BME280;69407;44.966;19.622;2023-04-24T01:47:57;100033.75;;;11.97;69.40
80102;BME280;69407;44.966;19.622;2023-04-24T01:50:23;100023.84;;;12.15;68.82
80102;BME280;69407;44.966;19.622;2023-04-24T01:52:48;100021.56;;;12.09;69.04
80102;BME280;69407;44.966;19.622;2023-04-24T01:55:14;100025.25;;;12.06;69.23
80102;BME280;69407;44.966;19.622;2023-04-24T01:57:40;100016.44;;;12.20;68.65
80102;BME280;69407;44.966;19.622;2023-04-24T02:00:06;100022.88;;;12.30;68.40
80102;BME280;69407;44.966;19.622;2023-04-24T02:02:32;100015.41;;;12.37;67.97
80102;BME280;69407;44.966;19.622;2023-04-24T02:04:58;100009.53;;;12.31;68.33
80102;BME280;69407;44.966;19.622;2023-04-24T02:07:24;100006.34;;;12.26;68.92
80102;BME280;69407;44.966;19.622;2023-04-24T02:09:49;100019.28;;;12.31;68.59
80102;BME280;69407;44.966;19.622;2023-04-24T02:12:15;100011.91;;;12.36;68.97
80102;BME280;69407;44.966;19.622;2023-04-24T02:14:42;100005.47;;;12.40;68.37
80102;BME280;69407;44.966;19.622;2023-04-24T02:17:08;100013.22;;;12.43;68.75
80102;BME280;69407;44.966;19.622;2023-04-24T02:19:34;100010.13;;;12.37;69.07
80102;BME280;69407;44.966;19.622;2023-04-24T02:22:00;100001.69;;;12.30;69.18
80102;BME280;69407;44.966;19.622;2023-04-24T02:24:25;100010.19;;;12.21;69.92
80102;BME280;69407;44.966;19.622;2023-04-24T02:26:51;100009.16;;;12.38;68.94
80102;BME280;69407;44.966;19.622;2023-04-24T02:29:16;100005.19;;;12.30;69.93
80102;BME280;69407;44.966;19.622;2023-04-24T02:31:41;100005.09;;;12.32;69.45
80102;BME280;69407;44.966;19.622;2023-04-24T02:34:07;100000.28;;;12.39;69.80
80102;BME280;69407;44.966;19.622;2023-04-24T02:36:32;100004.88;;;12.35;69.45
80102;BME280;69407;44.966;19.622;2023-04-24T02:38:58;99998.66;;;12.22;69.78
80102;BME280;69407;44.966;19.622;2023-04-24T02:41:23;100000.19;;;12.26;68.96
80102;BME280;69407;44.966;19.622;2023-04-24T02:43:49;100003.00;;;12.23;69.23
80102;BME280;69407;44.966;19.622;2023-04-24T02:46:14;99998.50;;;12.25;69.64
80102;BME280;69407;44.966;19.622;2023-04-24T02:48:40;99994.03;;;12.25;68.91
80102;BME280;69407;44.966;19.622;2023-04-24T02:51:05;99994.78;;;11.99;70.27
80102;BME280;69407;44.966;19.622;2023-04-24T02:53:32;99995.63;;;12.28;69.82
80102;BME280;69407;44.966;19.622;2023-04-24T02:55:57;99994.00;;;12.40;69.41
80102;BME280;69407;44.966;19.622;2023-04-24T02:58:23;99990.34;;;12.28;69.66
80102;BME280;69407;44.966;19.622;2023-04-24T03:00:48;99991.75;;;12.19;70.69
80102;BME280;69407;44.966;19.622;2023-04-24T03:03:18;99988.06;;;12.36;69.79
80102;BME280;69407;44.966;19.622;2023-04-24T03:05:43;99982.91;;;12.47;69.68
80102;BME280;69407;44.966;19.622;2023-04-24T03:08:09;99986.44;;;12.48;69.54
80102;BME280;69407;44.966;19.622;2023-04-24T03:10:35;99989.66;;;12.39;70.32
80102;BME280;69407;44.966;19.622;2023-04-24T03:13:01;99980.78;;;12.11;71.19
80102;BME280;69407;44.966;19.622;2023-04-24T03:15:26;99976.53;;;12.09;71.39
80102;BME280;69407;44.966;19.622;2023-04-24T03:17:51;99975.59;;;11.95;71.84
80102;BME280;69407;44.966;19.622;2023-04-24T03:20:17;99979.59;;;11.88;72.28
80102;BME280;69407;44.966;19.622;2023-04-24T03:22:42;99983.25;;;12.14;70.53
80102;BME280;69407;44.966;19.622;2023-04-24T03:25:08;99987.41;;;12.18;70.29
80102;BME280;69407;44.966;19.622;2023-04-24T03:27:34;99996.59;;;12.27;69.72
80102;BME280;69407;44.966;19.622;2023-04-24T03:30:00;99998.88;;;11.90;71.44
80102;BME280;69407;44.966;19.622;2023-04-24T03:32:26;99999.91;;;12.16;69.98
80102;BME280;69407;44.966;19.622;2023-04-24T03:34:51;99994.53;;;11.89;70.65
80102;BME280;69407;44.966;19.622;2023-04-24T03:37:17;99988.13;;;11.63;72.00
80102;BME280;69407;44.966;19.622;2023-04-24T03:39:42;99990.84;;;11.62;72.41
80102;BME280;69407;44.966;19.622;2023-04-24T03:42:08;99983.91;;;11.75;71.15
80102;BME280;69407;44.966;19.622;2023-04-24T03:44:34;99980.84;;;11.67;71.48
80102;BME280;69407;44.966;19.622;2023-04-24T03:47:00;99987.72;;;11.55;71.64
80102;BME280;69407;44.966;19.622;2023-04-24T03:49:26;99984.78;;;11.45;72.36
80102;BME280;69407;44.966;19.622;2023-04-24T03:51:51;99993.75;;;11.87;70.56
80102;BME280;69407;44.966;19.622;2023-04-24T03:54:18;99992.19;;;11.69;70.99
80102;BME280;69407;44.966;19.622;2023-04-24T03:56:43;100000.88;;;12.01;69.66
80102;BME280;69407;44.966;19.622;2023-04-24T03:59:09;100008.81;;;11.71;71.04
80102;BME280;69407;44.966;19.622;2023-04-24T04:01:35;100016.94;;;11.54;71.66
80102;BME280;69407;44.966;19.622;2023-04-24T04:04:03;100012.59;;;11.53;72.59
80102;BME280;69407;44.966;19.622;2023-04-24T04:06:29;100022.56;;;11.48;72.29
80102;BME280;69407;44.966;19.622;2023-04-24T04:08:56;100021.47;;;11.52;72.36
80102;BME280;69407;44.966;19.622;2023-04-24T04:11:22;100026.94;;;11.63;71.57
80102;BME280;69407;44.966;19.622;2023-04-24T04:13:47;100026.66;;;11.53;72.16
80102;BME280;69407;44.966;19.622;2023-04-24T04:16:13;100029.88;;;11.58;72.21
80102;BME280;69407;44.966;19.622;2023-04-24T04:18:39;100029.25;;;11.69;71.44
80102;BME280;69407;44.966;19.622;2023-04-24T04:21:04;100030.50;;;11.78;71.45
80102;BME280;69407;44.966;19.622;2023-04-24T04:23:30;100037.63;;;11.91;70.19
80102;BME280;69407;44.966;19.622;2023-04-24T04:25:57;100041.97;;;11.92;72.04
80102;BME280;69407;44.966;19.622;2023-04-24T04:28:22;100042.94;;;12.06;71.33
80102;BME280;69407;44.966;19.622;2023-04-24T04:30:50;100031.28;;;12.22;70.55
80102;BME280;69407;44.966;19.622;2023-04-24T04:33:21;100030.94;;;12.28;70.25
80102;BME280;69407;44.966;19.622;2023-04-24T04:35:47;100029.88;;;12.17;70.47
80102;BME280;69407;44.966;19.622;2023-04-24T04:38:18;100035.75;;;12.22;70.56
80102;BME280;69407;44.966;19.622;2023-04-24T04:40:44;100041.22;;;12.47;69.44
80102;BME280;69407;44.966;19.622;2023-04-24T04:43:10;100038.56;;;12.47;69.16
80102;BME280;69407;44.966;19.622;2023-04-24T04:45:37;100038.16;;;12.68;68.52
80102;BME280;69407;44.966;19.622;2023-04-24T04:48:04;100039.13;;;12.67;68.40
80102;BME280;69407;44.966;19.622;2023-04-24T04:50:31;100054.53;;;12.74;68.04
80102;BME280;69407;44.966;19.622;2023-04-24T04:52:56;100054.28;;;12.65;68.52
80102;BME280;69407;44.966;19.622;2023-04-24T04:55:22;100054.53;;;12.74;68.04
80102;BME280;69407;44.966;19.622;2023-04-24T04:57:47;100050.78;;;12.64;68.48
80102;BME280;69407;44.966;19.622;2023-04-24T05:00:13;100062.59;;;12.58;68.48
80102;BME280;69407;44.966;19.622;2023-04-24T05:02:39;100055.13;;;12.65;68.84
80102;BME280;69407;44.966;19.622;2023-04-24T05:05:06;100058.22;;;12.86;68.06
80102;BME280;69407;44.966;19.622;2023-04-24T05:07:31;100055.47;;;13.14;67.41
80102;BME280;69407;44.966;19.622;2023-04-24T05:09:57;100054.09;;;13.36;66.85
80102;BME280;69407;44.966;19.622;2023-04-24T05:12:22;100055.19;;;13.46;67.20
80102;BME280;69407;44.966;19.622;2023-04-24T05:14:48;100061.69;;;13.67;66.42
80102;BME280;69407;44.966;19.622;2023-04-24T05:17:13;100067.97;;;13.66;66.32
80102;BME280;69407;44.966;19.622;2023-04-24T05:19:39;100069.13;;;13.62;66.97
80102;BME280;69407;44.966;19.622;2023-04-24T05:22:04;100074.34;;;13.76;66.17
80102;BME280;69407;44.966;19.622;2023-04-24T05:24:32;100079.06;;;13.86;64.75
80102;BME280;69407;44.966;19.622;2023-04-24T05:26:58;100063.97;;;13.86;66.21
80102;BME280;69407;44.966;19.622;2023-04-24T05:29:24;100065.16;;;14.07;65.36
80102;BME280;69407;44.966;19.622;2023-04-24T05:31:51;100067.25;;;14.15;64.46
80102;BME280;69407;44.966;19.622;2023-04-24T05:34:16;100073.88;;;14.22;64.10
80102;BME280;69407;44.966;19.622;2023-04-24T05:36:42;100085.13;;;14.13;65.33
80102;BME280;69407;44.966;19.622;2023-04-24T05:39:08;100081.09;;;13.95;65.66
80102;BME280;69407;44.966;19.622;2023-04-24T05:41:34;100087.75;;;13.88;65.64
80102;BME280;69407;44.966;19.622;2023-04-24T05:43:59;100067.47;;;13.74;68.49
80102;BME280;69407;44.966;19.622;2023-04-24T05:46:25;100059.19;;;13.39;70.52
80102;BME280;69407;44.966;19.622;2023-04-24T05:48:50;100072.56;;;13.37;70.13
80102;BME280;69407;44.966;19.622;2023-04-24T05:51:16;100076.75;;;13.54;70.48
80102;BME280;69407;44.966;19.622;2023-04-24T05:53:41;100081.22;;;13.54;70.98
80102;BME280;69407;44.966;19.622;2023-04-24T05:56:07;100088.66;;;13.61;71.16
80102;BME280;69407;44.966;19.622;2023-04-24T05:58:32;100096.78;;;13.72;70.26
80102;BME280;69407;44.966;19.622;2023-04-24T06:00:58;100092.66;;;13.81;71.29
80102;BME280;69407;44.966;19.622;2023-04-24T06:03:26;100096.75;;;13.60;71.58
80102;BME280;69407;44.966;19.622;2023-04-24T06:05:52;100099.41;;;13.60;72.11
80102;BME280;69407;44.966;19.622;2023-04-24T06:08:18;100094.66;;;13.77;71.95
80102;BME280;69407;44.966;19.622;2023-04-24T06:10:43;100097.13;;;13.93;72.21
80102;BME280;69407;44.966;19.622;2023-04-24T06:13:09;100100.53;;;13.83;71.56
80102;BME280;69407;44.966;19.622;2023-04-24T06:15:35;100094.03;;;13.87;72.67
80102;BME280;69407;44.966;19.622;2023-04-24T06:18:00;100088.72;;;13.99;73.36
80102;BME280;69407;44.966;19.622;2023-04-24T06:20:26;100098.84;;;14.07;72.32
80102;BME280;69407;44.966;19.622;2023-04-24T06:22:51;100092.88;;;14.29;72.10
80102;BME280;69407;44.966;19.622;2023-04-24T06:25:17;100099.81;;;14.31;72.34
80102;BME280;69407;44.966;19.622;2023-04-24T06:27:44;100092.03;;;14.28;71.56
80102;BME280;69407;44.966;19.622;2023-04-24T06:30:09;100106.19;;;14.42;70.66
80102;BME280;69407;44.966;19.622;2023-04-24T06:32:35;100114.91;;;14.31;70.92
80102;BME280;69407;44.966;19.622;2023-04-24T06:35:00;100109.16;;;14.37;70.51
80102;BME280;69407;44.966;19.622;2023-04-24T06:37:26;100115.78;;;14.44;70.92
80102;BME280;69407;44.966;19.622;2023-04-24T06:39:51;100122.09;;;14.16;71.07
80102;BME280;69407;44.966;19.622;2023-04-24T06:42:17;100125.72;;;14.15;70.55
80102;BME280;69407;44.966;19.622;2023-04-24T06:44:42;100122.03;;;14.18;69.28
80102;BME280;69407;44.966;19.622;2023-04-24T06:47:11;100128.94;;;14.07;70.29
80102;BME280;69407;44.966;19.622;2023-04-24T06:49:39;100139.66;;;14.06;71.05
80102;BME280;69407;44.966;19.622;2023-04-24T06:52:05;100132.09;;;14.00;70.67
80102;BME280;69407;44.966;19.622;2023-04-24T06:54:32;100123.19;;;14.39;68.13
80102;BME280;69407;44.966;19.622;2023-04-24T06:56:58;100123.19;;;14.14;70.42
80102;BME280;69407;44.966;19.622;2023-04-24T06:59:24;100124.97;;;14.13;70.79
80102;BME280;69407;44.966;19.622;2023-04-24T07:01:50;100124.75;;;14.16;70.74
80102;BME280;69407;44.966;19.622;2023-04-24T07:04:18;100134.53;;;14.16;69.67
80102;BME280;69407;44.966;19.622;2023-04-24T07:06:47;100138.84;;;14.31;70.72
80102;BME280;69407;44.966;19.622;2023-04-24T07:09:13;100129.56;;;14.75;68.33
80102;BME280;69407;44.966;19.622;2023-04-24T07:11:39;100131.72;;;14.57;68.17
80102;BME280;69407;44.966;19.622;2023-04-24T07:14:06;100123.41;;;14.61;69.38
80102;BME280;69407;44.966;19.622;2023-04-24T07:16:31;100127.75;;;14.75;67.56
80102;BME280;69407;44.966;19.622;2023-04-24T07:18:57;100124.50;;;14.59;67.89
80102;BME280;69407;44.966;19.622;2023-04-24T07:21:22;100126.41;;;14.57;68.96
80102;BME280;69407;44.966;19.622;2023-04-24T07:23:48;100132.69;;;14.56;69.24
80102;BME280;69407;44.966;19.622;2023-04-24T07:26:13;100124.03;;;14.40;69.38
80102;BME280;69407;44.966;19.622;2023-04-24T07:28:40;100131.53;;;14.47;69.33
80102;BME280;69407;44.966;19.622;2023-04-24T07:31:06;100129.34;;;14.40;69.59
80102;BME280;69407;44.966;19.622;2023-04-24T07:33:31;100142.13;;;14.34;70.00
80102;BME280;69407;44.966;19.622;2023-04-24T07:35:57;100133.66;;;14.55;68.81
80102;BME280;69407;44.966;19.622;2023-04-24T07:38:22;100137.25;;;14.67;67.96
80102;BME280;69407;44.966;19.622;2023-04-24T07:40:48;100138.44;;;14.50;68.49
80102;BME280;69407;44.966;19.622;2023-04-24T07:43:14;100142.34;;;14.82;67.64
80102;BME280;69407;44.966;19.622;2023-04-24T07:45:39;100142.78;;;14.63;68.54
80102;BME280;69407;44.966;19.622;2023-04-24T07:48:06;100143.44;;;14.54;69.81
80102;BME280;69407;44.966;19.622;2023-04-24T07:50:32;100137.28;;;14.54;68.87
80102;BME280;69407;44.966;19.622;2023-04-24T07:52:57;100143.63;;;14.64;67.66
80102;BME280;69407;44.966;19.622;2023-04-24T07:55:23;100140.00;;;14.52;68.91
80102;BME280;69407;44.966;19.622;2023-04-24T07:57:49;100137.13;;;14.43;70.20
80102;BME280;69407;44.966;19.622;2023-04-24T08:00:14;100135.31;;;14.81;68.68
80102;BME280;69407;44.966;19.622;2023-04-24T08:02:40;100129.81;;;14.72;69.21
80102;BME280;69407;44.966;19.622;2023-04-24T08:05:06;100128.63;;;14.63;69.32
80102;BME280;69407;44.966;19.622;2023-04-24T08:07:32;100125.84;;;14.64;69.58
80102;BME280;69407;44.966;19.622;2023-04-24T08:09:58;100120.22;;;14.69;69.73
80102;BME280;69407;44.966;19.622;2023-04-24T08:12:24;100126.50;;;14.68;68.35
80102;BME280;69407;44.966;19.622;2023-04-24T08:14:50;100126.16;;;14.85;68.20
80102;BME280;69407;44.966;19.622;2023-04-24T08:17:16;100124.47;;;14.84;69.15
80102;BME280;69407;44.966;19.622;2023-04-24T08:19:42;100116.38;;;14.86;68.83
80102;BME280;69407;44.966;19.622;2023-04-24T08:22:12;100115.16;;;15.03;68.28
80102;BME280;69407;44.966;19.622;2023-04-24T08:24:38;100128.56;;;15.01;67.72
80102;BME280;69407;44.966;19.622;2023-04-24T08:27:04;100135.63;;;15.50;65.96
80102;BME280;69407;44.966;19.622;2023-04-24T08:29:29;100141.84;;;15.38;66.16
80102;BME280;69407;44.966;19.622;2023-04-24T08:31:55;100152.19;;;15.06;67.30
80102;BME280;69407;44.966;19.622;2023-04-24T08:34:21;100147.78;;;14.81;67.06
80102;BME280;69407;44.966;19.622;2023-04-24T08:36:47;100143.38;;;15.05;67.63
80102;BME280;69407;44.966;19.622;2023-04-24T08:39:12;100148.50;;;14.83;66.44
80102;BME280;69407;44.966;19.622;2023-04-24T08:41:41;100155.09;;;14.77;68.08
80102;BME280;69407;44.966;19.622;2023-04-24T08:44:09;100165.75;;;14.77;68.19
80102;BME280;69407;44.966;19.622;2023-04-24T08:46:35;100163.88;;;15.16;68.81
80102;BME280;69407;44.966;19.622;2023-04-24T08:49:01;100165.50;;;15.06;70.10
80102;BME280;69407;44.966;19.622;2023-04-24T08:51:29;100157.59;;;15.17;70.24
80102;BME280;69407;44.966;19.622;2023-04-24T08:53:55;100147.44;;;14.85;71.47
80102;BME280;69407;44.966;19.622;2023-04-24T08:56:23;100152.09;;;15.07;73.19
80102;BME280;69407;44.966;19.622;2023-04-24T08:58:53;100153.94;;;14.81;74.30
80102;BME280;69407;44.966;19.622;2023-04-24T09:01:19;100147.22;;;15.25;73.74
80102;BME280;69407;44.966;19.622;2023-04-24T09:03:48;100143.59;;;15.02;74.39
80102;BME280;69407;44.966;19.622;2023-04-24T09:06:14;100136.31;;;15.17;73.88
80102;BME280;69407;44.966;19.622;2023-04-24T09:08:42;100147.31;;;14.87;75.18
80102;BME280;69407;44.966;19.622;2023-04-24T09:11:09;100149.78;;;14.64;75.76
80102;BME280;69407;44.966;19.622;2023-04-24T09:13:35;100143.50;;;14.65;74.71
80102;BME280;69407;44.966;19.622;2023-04-24T09:16:01;100118.16;;;14.85;76.41
80102;BME280;69407;44.966;19.622;2023-04-24T09:18:26;100108.34;;;14.99;78.09
80102;BME280;69407;44.966;19.622;2023-04-24T09:23:27;100103.78;;;15.48;75.86
80102;BME280;69407;44.966;19.622;2023-04-24T09:25:56;100096.16;;;15.44;76.03
80102;BME280;69407;44.966;19.622;2023-04-24T09:28:27;100089.97;;;16.02;73.62
80102;BME280;69407;44.966;19.622;2023-04-24T09:31:08;100098.56;;;16.75;71.04
80102;BME280;69407;44.966;19.622;2023-04-24T09:33:34;100087.00;;;16.96;70.56
80102;BME280;69407;44.966;19.622;2023-04-24T09:36:00;100089.16;;;17.14;71.00
80102;BME280;69407;44.966;19.622;2023-04-24T09:38:32;100087.59;;;17.11;69.96
80102;BME280;69407;44.966;19.622;2023-04-24T09:41:02;100077.19;;;17.72;65.42
80102;BME280;69407;44.966;19.622;2023-04-24T09:43:30;100075.88;;;17.35;64.46
80102;BME280;69407;44.966;19.622;2023-04-24T09:45:57;100073.84;;;17.16;65.74
80102;BME280;69407;44.966;19.622;2023-04-24T09:48:34;100062.28;;;16.50;69.21
80102;BME280;69407;44.966;19.622;2023-04-24T09:51:04;100066.25;;;16.44;69.11
80102;BME280;69407;44.966;19.622;2023-04-24T09:53:32;100068.94;;;16.89;67.51
80102;BME280;69407;44.966;19.622;2023-04-24T09:56:10;100062.50;;;16.58;67.01
80102;BME280;69407;44.966;19.622;2023-04-24T09:58:38;100058.53;;;16.86;64.77
80102;BME280;69407;44.966;19.622;2023-04-24T10:01:04;100061.00;;;17.21;64.45
80102;BME280;69407;44.966;19.622;2023-04-24T10:03:31;100061.66;;;16.91;65.42
80102;BME280;69407;44.966;19.622;2023-04-24T10:06:01;100048.31;;;16.91;66.59
80102;BME280;69407;44.966;19.622;2023-04-24T10:08:33;100052.94;;;16.78;64.63
80102;BME280;69407;44.966;19.622;2023-04-24T10:10:59;100055.13;;;16.28;66.42
80102;BME280;69407;44.966;19.622;2023-04-24T10:13:26;100051.97;;;16.11;67.56
80102;BME280;69407;44.966;19.622;2023-04-24T10:15:53;100046.72;;;16.21;69.29
80102;BME280;69407;44.966;19.622;2023-04-24T10:18:20;100045.28;;;16.17;67.24
80102;BME280;69407;44.966;19.622;2023-04-24T10:20:46;100041.78;;;16.61;66.56
80102;BME280;69407;44.966;19.622;2023-04-24T10:23:12;100028.19;;;16.31;66.15
80102;BME280;69407;44.966;19.622;2023-04-24T10:25:37;100034.13;;;16.23;67.00
80102;BME280;69407;44.966;19.622;2023-04-24T10:28:04;100030.63;;;16.00;66.79
80102;BME280;69407;44.966;19.622;2023-04-24T10:30:34;100015.84;;;16.30;66.21
80102;BME280;69407;44.966;19.622;2023-04-24T10:33:07;100020.31;;;16.40;65.32
80102;BME280;69407;44.966;19.622;2023-04-24T10:35:42;100010.38;;;16.42;66.62
80102;BME280;69407;44.966;19.622;2023-04-24T10:38:12;100009.06;;;16.26;65.60
80102;BME280;69407;44.966;19.622;2023-04-24T10:40:38;100010.38;;;16.54;65.06
80102;BME280;69407;44.966;19.622;2023-04-24T10:43:05;100016.81;;;16.51;64.68
80102;BME280;69407;44.966;19.622;2023-04-24T10:45:34;100019.72;;;17.14;64.94
80102;BME280;69407;44.966;19.622;2023-04-24T10:48:07;100012.56;;;17.46;63.29
80102;BME280;69407;44.966;19.622;2023-04-24T10:50:51;100001.25;;;17.96;60.23
80102;BME280;69407;44.966;19.622;2023-04-24T10:53:23;100007.56;;;18.25;60.49
80102;BME280;69407;44.966;19.622;2023-04-24T10:56:05;100001.63;;;18.52;58.60
80102;BME280;69407;44.966;19.622;2023-04-24T10:58:40;99996.53;;;18.49;56.94
80102;BME280;69407;44.966;19.622;2023-04-24T11:01:06;100001.50;;;19.03;57.46
80102;BME280;69407;44.966;19.622;2023-04-24T11:03:34;100000.34;;;18.96;55.31
80102;BME280;69407;44.966;19.622;2023-04-24T11:06:07;99996.41;;;19.00;57.34
80102;BME280;69407;44.966;19.622;2023-04-24T11:08:43;99988.38;;;19.49;56.40
80102;BME280;69407;44.966;19.622;2023-04-24T11:18:51;99989.38;;;19.19;58.77
80102;BME280;69407;44.966;19.622;2023-04-24T11:21:20;99995.22;;;18.74;56.25
80102;BME280;69407;44.966;19.622;2023-04-24T11:23:46;99994.00;;;18.48;55.93
80102;BME280;69407;44.966;19.622;2023-04-24T11:26:19;99998.09;;;19.01;55.43
80102;BME280;69407;44.966;19.622;2023-04-24T11:28:47;99988.09;;;19.32;55.31
80102;BME280;69407;44.966;19.622;2023-04-24T11:31:38;99977.94;;;19.36;56.94
80102;BME280;69407;44.966;19.622;2023-04-24T11:34:12;99982.84;;;19.89;55.09
80102;BME280;69407;44.966;19.622;2023-04-24T11:36:40;99983.72;;;19.51;55.84
80102;BME280;69407;44.966;19.622;2023-04-24T11:39:07;99977.50;;;19.50;54.63
80102;BME280;69407;44.966;19.622;2023-04-24T11:41:34;99976.69;;;19.21;54.55
80102;BME280;69407;44.966;19.622;2023-04-24T11:44:00;99978.38;;;19.12;53.39
80102;BME280;69407;44.966;19.622;2023-04-24T11:46:28;99964.09;;;19.50;53.62
80102;BME280;69407;44.966;19.622;2023-04-24T11:48:54;99973.41;;;19.46;51.23
80102;BME280;69407;44.966;19.622;2023-04-24T11:51:19;99963.91;;;19.90;54.59
80102;BME280;69407;44.966;19.622;2023-04-24T11:53:45;99965.91;;;19.88;48.16
80102;BME280;69407;44.966;19.622;2023-04-24T11:56:10;99958.88;;;20.15;49.47
80102;BME280;69407;44.966;19.622;2023-04-24T11:58:37;99954.88;;;21.01;46.04
80102;BME280;69407;44.966;19.622;2023-04-24T12:01:03;99950.97;;;20.23;46.93
80102;BME280;69407;44.966;19.622;2023-04-24T12:03:30;99944.53;;;20.34;46.60
80102;BME280;69407;44.966;19.622;2023-04-24T12:06:06;99944.00;;;20.58;50.26
80102;BME280;69407;44.966;19.622;2023-04-24T12:08:32;99941.13;;;20.87;48.71
80102;BME280;69407;44.966;19.622;2023-04-24T12:11:00;99940.22;;;20.96;47.15
80102;BME280;69407;44.966;19.622;2023-04-24T12:13:26;99933.38;;;20.84;45.54
80102;BME280;69407;44.966;19.622;2023-04-24T12:15:53;99938.50;;;20.95;46.91
80102;BME280;69407;44.966;19.622;2023-04-24T12:18:22;99935.44;;;20.17;46.67
80102;BME280;69407;44.966;19.622;2023-04-24T12:20:47;99931.34;;;20.68;45.14
80102;BME280;69407;44.966;19.622;2023-04-24T12:23:13;99924.19;;;20.86;47.39
80102;BME280;69407;44.966;19.622;2023-04-24T12:25:39;99921.41;;;20.60;48.03
80102;BME280;69407;44.966;19.622;2023-04-24T12:30:34;99908.75;;;20.15;49.29
80102;BME280;69407;44.966;19.622;2023-04-24T12:33:02;99911.50;;;19.69;48.44
80102;BME280;69407;44.966;19.622;2023-04-24T12:35:30;99905.88;;;20.27;47.05
80102;BME280;69407;44.966;19.622;2023-04-24T12:38:12;99902.84;;;20.12;48.70
80102;BME280;69407;44.966;19.622;2023-04-24T12:40:38;99900.56;;;20.44;46.68
80102;BME280;69407;44.966;19.622;2023-04-24T12:43:15;99889.50;;;20.75;51.14
80102;BME280;69407;44.966;19.622;2023-04-24T12:45:41;99893.34;;;20.72;48.38
80102;BME280;69407;44.966;19.622;2023-04-24T12:48:08;99882.00;;;21.22;47.27
80102;BME280;69407;44.966;19.622;2023-04-24T12:50:33;99880.56;;;20.57;49.23
80102;BME280;69407;44.966;19.622;2023-04-24T12:52:59;99873.22;;;20.76;50.05